createdAt,value
2016-09-14T00:00:25.933Z,96.98
2016-09-14T00:01:25.927Z,96.6
2016-09-14T00:02:25.908Z,96.6
2016-09-14T00:03:25.904Z,96.79
2016-09-14T00:04:25.900Z,96.79
2016-09-14T00:05:25.901Z,96.89
2016-09-14T00:06:25.891Z,96.7
2016-09-14T00:07:25.886Z,96.89
2016-09-14T00:08:25.856Z,96.79
2016-09-14T00:09:25.857Z,96.41
2016-09-14T00:10:25.847Z,96.22
2016-09-14T00:11:25.843Z,96.41
2016-09-14T00:12:25.827Z,96.22
2016-09-14T00:13:25.827Z,96.17
2016-09-14T00:14:25.819Z,96.17
2016-09-14T00:15:25.827Z,96.17
2016-09-14T00:16:25.811Z,96.08
2016-09-14T00:17:25.807Z,95.7
2016-09-14T00:18:25.785Z,95.79
2016-09-14T00:19:25.784Z,95.89
2016-09-14T00:20:25.783Z,96.17
2016-09-14T00:21:25.765Z,95.89
2016-09-14T00:22:25.755Z,95.98
2016-09-14T00:23:25.762Z,95.46
2016-09-14T00:24:25.747Z,95.75
2016-09-14T00:25:25.740Z,95.56
2016-09-14T00:26:25.745Z,95.46
2016-09-14T00:27:25.727Z,95.65
2016-09-14T00:28:25.730Z,95.46
2016-09-14T00:29:25.713Z,95.27
2016-09-14T00:30:25.715Z,94.98
2016-09-14T00:31:25.711Z,95.17
2016-09-14T00:32:25.702Z,95.27
2016-09-14T00:33:25.675Z,95.36
2016-09-14T00:34:25.672Z,95.41
2016-09-14T00:35:25.681Z,95.12
2016-09-14T00:36:25.672Z,94.7
2016-09-14T00:37:25.658Z,94.74
2016-09-14T00:38:25.643Z,94.84
2016-09-14T00:39:25.650Z,94.65
2016-09-14T00:40:25.641Z,95.12
2016-09-14T00:41:25.626Z,95.03
2016-09-14T00:42:25.621Z,94.56
2016-09-14T00:43:25.600Z,94.65
2016-09-14T00:44:25.592Z,94.56
2016-09-14T00:45:25.606Z,94.65
2016-09-14T00:46:25.584Z,94.46
2016-09-14T00:47:25.571Z,94.37
2016-09-14T00:48:25.570Z,94.46
2016-09-14T00:49:25.570Z,94.08
2016-09-14T00:50:25.546Z,94.08
2016-09-14T00:51:25.567Z,94.27
2016-09-14T00:52:25.539Z,93.7
2016-09-14T00:53:25.555Z,94.08
2016-09-14T00:54:25.538Z,94.22
2016-09-14T00:55:25.510Z,94.13
2016-09-14T00:56:25.514Z,94.22
2016-09-14T00:57:25.514Z,94.22
2016-09-14T00:58:25.506Z,94.32
2016-09-14T00:59:25.490Z,94.03
2016-09-14T01:00:25.492Z,93.74
2016-09-14T01:01:25.484Z,93.94
2016-09-14T01:02:25.463Z,93.74
2016-09-14T01:03:25.468Z,94.03
2016-09-14T01:04:25.449Z,93.37
2016-09-14T01:05:25.463Z,93.55
2016-09-14T01:06:25.439Z,93.46
2016-09-14T01:07:25.440Z,93.65
2016-09-14T01:08:25.427Z,93.46
2016-09-14T01:09:25.419Z,93.41
2016-09-14T01:10:25.397Z,93.41
2016-09-14T01:11:25.421Z,93.23
2016-09-14T01:12:25.389Z,93.51
2016-09-14T01:13:25.390Z,92.79
2016-09-14T01:14:25.376Z,93.04
2016-09-14T01:15:25.373Z,93.08
2016-09-14T01:16:25.360Z,93.23
2016-09-14T01:17:25.365Z,93.23
2016-09-14T01:18:25.338Z,92.75
2016-09-14T01:19:25.345Z,92.56
2016-09-14T01:20:25.349Z,92.94
2016-09-14T01:21:25.322Z,92.94
2016-09-14T01:22:25.321Z,92.94
2016-09-14T01:23:25.322Z,92.94
2016-09-14T01:24:25.293Z,93.04
2016-09-14T01:25:25.308Z,92.65
2016-09-14T01:26:25.277Z,92.94
2016-09-14T01:27:25.285Z,92.94
2016-09-14T01:28:25.269Z,92.94
2016-09-14T01:29:25.262Z,92.84
2016-09-14T01:30:25.254Z,92.94
2016-09-14T01:31:25.256Z,92.65
2016-09-14T01:32:25.232Z,92.27
2016-09-14T01:33:25.247Z,92.18
2016-09-14T01:34:25.224Z,92.94
2016-09-14T01:35:25.231Z,92.65
2016-09-14T01:36:25.221Z,92.65
2016-09-14T01:37:25.216Z,92.27
2016-09-14T01:38:25.351Z,92.46
2016-09-14T01:39:25.181Z,92.08
2016-09-14T01:40:25.185Z,92.65
2016-09-14T01:41:25.168Z,91.89
2016-09-14T01:42:25.177Z,92.27
2016-09-14T01:43:25.149Z,92.08
2016-09-14T01:44:25.148Z,92.18
2016-09-14T01:45:25.142Z,91.8
2016-09-14T01:46:25.133Z,92.08
2016-09-14T01:47:25.126Z,91.89
2016-09-14T01:48:25.120Z,91.7
2016-09-14T01:49:25.111Z,91.7
2016-09-14T01:50:25.103Z,91.89
2016-09-14T01:51:25.104Z,91.7
2016-09-14T01:52:25.088Z,91.7
2016-09-14T01:53:25.088Z,91.7
2016-09-14T01:54:25.068Z,91.99
2016-09-14T01:55:25.079Z,91.51
2016-09-14T01:56:25.061Z,91.42
2016-09-14T01:57:25.045Z,91.51
2016-09-14T01:58:25.059Z,91.46
2016-09-14T01:59:25.050Z,91.22
2016-09-14T02:00:25.045Z,91.37
2016-09-14T02:01:25.035Z,91.61
2016-09-14T02:02:25.024Z,90.84
2016-09-14T02:03:25.014Z,91.42
2016-09-14T02:04:25.012Z,91.08
2016-09-14T02:05:24.990Z,91.17
2016-09-14T02:06:24.993Z,91.08
2016-09-14T02:07:24.976Z,91.17
2016-09-14T02:08:24.986Z,90.8
2016-09-14T02:09:24.958Z,90.89
2016-09-14T02:10:24.969Z,90.7
2016-09-14T02:11:24.942Z,90.89
2016-09-14T02:12:24.942Z,91.08
2016-09-14T02:13:24.938Z,91.17
2016-09-14T02:14:24.926Z,90.22
2016-09-14T02:15:24.913Z,90.42
2016-09-14T02:16:24.910Z,90.7
2016-09-14T02:17:24.903Z,90.61
2016-09-14T02:18:24.889Z,90.7
2016-09-14T02:19:24.884Z,90.42
2016-09-14T02:20:24.887Z,90.56
2016-09-14T02:21:24.874Z,90.18
2016-09-14T02:22:24.876Z,90.18
2016-09-14T02:23:24.873Z,90.18
2016-09-14T02:24:24.873Z,90.18
2016-09-14T02:25:24.838Z,89.89
2016-09-14T02:26:24.854Z,89.89
2016-09-14T02:27:24.844Z,89.89
2016-09-14T02:28:24.816Z,90.08
2016-09-14T02:29:24.810Z,90.18
2016-09-14T02:30:25.101Z,89.7
2016-09-14T02:31:24.806Z,89.8
2016-09-14T02:32:24.785Z,89.8
2016-09-14T02:33:24.784Z,89.89
2016-09-14T02:34:24.791Z,89.8
2016-09-14T02:35:24.783Z,89.42
2016-09-14T02:36:24.767Z,89.56
2016-09-14T02:37:24.769Z,89.61
2016-09-14T02:38:24.804Z,89.51
2016-09-14T02:39:24.748Z,89.61
2016-09-14T02:40:24.753Z,89.42
2016-09-14T02:41:24.728Z,89.42
2016-09-14T02:42:24.738Z,89.42
2016-09-14T02:43:24.724Z,89.14
2016-09-14T02:44:24.697Z,89.32
2016-09-14T02:45:24.704Z,88.94
2016-09-14T02:46:24.704Z,89.14
2016-09-14T02:47:24.681Z,89.23
2016-09-14T02:48:24.670Z,89.14
2016-09-14T02:49:24.666Z,88.94
2016-09-14T02:50:24.673Z,89.04
2016-09-14T02:51:24.658Z,89.14
2016-09-14T02:52:24.658Z,88.94
2016-09-14T02:53:24.636Z,89.32
2016-09-14T02:54:24.637Z,88.75
2016-09-14T02:55:24.622Z,88.94
2016-09-14T02:56:24.608Z,89.14
2016-09-14T02:57:24.612Z,89.14
2016-09-14T02:58:24.612Z,88.46
2016-09-14T02:59:24.585Z,88.66
2016-09-14T03:00:24.598Z,88.46
2016-09-14T03:01:24.584Z,88.66
2016-09-14T03:02:24.581Z,88.75
2016-09-14T03:03:24.563Z,88.37
2016-09-14T03:04:24.559Z,88.89
2016-09-14T03:05:24.561Z,88.99
2016-09-14T03:06:24.552Z,88.7
2016-09-14T03:07:24.532Z,88.51
2016-09-14T03:08:24.515Z,88.32
2016-09-14T03:09:24.508Z,88.51
2016-09-14T03:10:24.516Z,88.23
2016-09-14T03:11:24.494Z,88.32
2016-09-14T03:12:24.493Z,88.23
2016-09-14T03:13:24.490Z,88.51
2016-09-14T03:14:24.484Z,88.13
2016-09-14T03:15:24.482Z,88.04
2016-09-14T03:16:24.455Z,88.23
2016-09-14T03:17:24.461Z,88.32
2016-09-14T03:18:24.453Z,88.13
2016-09-14T03:19:24.445Z,88.23
2016-09-14T03:20:24.424Z,88.13
2016-09-14T03:21:24.418Z,87.94
2016-09-14T03:22:24.431Z,88.04
2016-09-14T03:23:24.402Z,88.04
2016-09-14T03:24:24.416Z,87.94
2016-09-14T03:25:24.395Z,87.94
2016-09-14T03:26:24.386Z,87.85
2016-09-14T03:27:24.385Z,88.13
2016-09-14T03:28:24.380Z,88.04
2016-09-14T03:29:24.364Z,88.13
2016-09-14T03:30:24.355Z,87.65
2016-09-14T03:31:24.345Z,87.75
2016-09-14T03:32:24.346Z,87.18
2016-09-14T03:33:24.333Z,87.56
2016-09-14T03:34:24.332Z,87.27
2016-09-14T03:35:24.334Z,87.56
2016-09-14T03:36:24.325Z,87.46
2016-09-14T03:37:24.312Z,87.56
2016-09-14T03:38:24.311Z,87.75
2016-09-14T03:39:24.304Z,87.56
2016-09-14T03:40:24.282Z,87.27
2016-09-14T03:41:24.281Z,87.37
2016-09-14T03:42:24.274Z,87.37
2016-09-14T03:43:24.249Z,86.9
2016-09-14T03:44:24.258Z,86.9
2016-09-14T03:45:24.248Z,87.27
2016-09-14T03:46:24.249Z,87.08
2016-09-14T03:47:24.220Z,87.08
2016-09-14T03:48:24.211Z,86.7
2016-09-14T03:49:24.206Z,87.18
2016-09-14T03:50:24.213Z,86.99
2016-09-14T03:51:24.197Z,87.27
2016-09-14T03:52:24.189Z,86.9
2016-09-14T03:53:24.184Z,87.27
2016-09-14T03:54:24.174Z,86.85
2016-09-14T03:55:24.167Z,86.9
2016-09-14T03:56:24.167Z,87.27
2016-09-14T03:57:24.159Z,86.99
2016-09-14T03:58:24.151Z,86.51
2016-09-14T03:59:24.131Z,87.46
2016-09-14T04:00:24.129Z,87.37
2016-09-14T04:01:24.116Z,86.51
2016-09-14T04:02:24.124Z,86.9
2016-09-14T04:03:24.108Z,87.08
2016-09-14T04:04:24.107Z,86.9
2016-09-14T04:05:24.106Z,86.61
2016-09-14T04:06:24.093Z,86.61
2016-09-14T04:07:24.068Z,86.7
2016-09-14T04:08:24.078Z,86.8
2016-09-14T04:09:24.067Z,86.7
2016-09-14T04:10:24.055Z,86.8
2016-09-14T04:11:24.039Z,86.8
2016-09-14T04:12:24.033Z,86.7
2016-09-14T04:13:24.039Z,86.61
2016-09-14T04:14:24.016Z,86.61
2016-09-14T04:15:24.029Z,86.99
2016-09-14T04:16:24.006Z,86.7
2016-09-14T04:17:24.008Z,86.7
2016-09-14T04:18:24.003Z,86.51
2016-09-14T04:19:23.995Z,86.61
2016-09-14T04:20:23.994Z,86.7
2016-09-14T04:21:23.987Z,86.61
2016-09-14T04:22:23.965Z,86.61
2016-09-14T04:23:23.972Z,86.7
2016-09-14T04:24:23.964Z,86.51
2016-09-14T04:25:23.956Z,86.51
2016-09-14T04:26:23.940Z,86.51
2016-09-14T04:27:23.941Z,86.22
2016-09-14T04:28:23.927Z,86.7
2016-09-14T04:29:23.923Z,86.61
2016-09-14T04:30:23.910Z,86.61
2016-09-14T04:31:23.902Z,86.51
2016-09-14T04:32:23.897Z,86.32
2016-09-14T04:33:23.887Z,86.13
2016-09-14T04:34:23.869Z,86.13
2016-09-14T04:35:23.873Z,86.22
2016-09-14T04:36:23.853Z,86.04
2016-09-14T04:37:23.846Z,86.22
2016-09-14T04:38:23.835Z,86.32
2016-09-14T04:39:23.842Z,86.04
2016-09-14T04:40:23.836Z,86.32
2016-09-14T04:41:23.827Z,86.32
2016-09-14T04:42:23.805Z,86.51
2016-09-14T04:43:23.818Z,85.61
2016-09-14T04:44:23.814Z,86.38
2016-09-14T04:45:23.787Z,86.47
2016-09-14T04:46:23.793Z,85.61
2016-09-14T04:47:23.772Z,85.61
2016-09-14T04:48:23.776Z,85.8
2016-09-14T04:49:23.770Z,85.71
2016-09-14T04:50:23.762Z,85.52
2016-09-14T04:51:23.742Z,85.52
2016-09-14T04:52:23.747Z,85.52
2016-09-14T04:53:23.745Z,85.52
2016-09-14T04:54:23.717Z,85.71
2016-09-14T04:55:23.720Z,85.71
2016-09-14T04:56:23.724Z,85.61
2016-09-14T04:57:23.716Z,85.71
2016-09-14T04:58:23.694Z,85.61
2016-09-14T04:59:23.693Z,85.61
2016-09-14T05:00:23.673Z,85.71
2016-09-14T05:01:23.685Z,85.8
2016-09-14T05:02:23.658Z,85.61
2016-09-14T05:03:23.670Z,85.8
2016-09-14T05:04:23.642Z,85.71
2016-09-14T05:05:23.641Z,85.8
2016-09-14T05:06:23.650Z,85.9
2016-09-14T05:07:23.619Z,85.9
2016-09-14T05:08:23.636Z,85.9
2016-09-14T05:09:23.606Z,85.85
2016-09-14T05:10:23.607Z,85.66
2016-09-14T05:11:23.591Z,86.04
2016-09-14T05:12:23.592Z,86.04
2016-09-14T05:13:23.600Z,86.04
2016-09-14T05:14:23.572Z,86.04
2016-09-14T05:15:23.564Z,85.66
2016-09-14T05:16:23.557Z,85.56
2016-09-14T05:17:23.571Z,85.75
2016-09-14T05:18:23.550Z,85.85
2016-09-14T05:19:23.555Z,85.75
2016-09-14T05:20:23.536Z,85.75
2016-09-14T05:21:23.536Z,85.56
2016-09-14T05:22:23.534Z,85.8
2016-09-14T05:23:23.529Z,85.51
2016-09-14T05:24:23.515Z,85.51
2016-09-14T05:25:23.498Z,85.51
2016-09-14T05:26:23.487Z,85.41
2016-09-14T05:27:23.481Z,85.55
2016-09-14T05:28:23.486Z,85.55
2016-09-14T05:29:23.475Z,85.64
2016-09-14T05:30:23.460Z,86.03
2016-09-14T05:31:23.465Z,85.74
2016-09-14T05:32:23.452Z,85.74
2016-09-14T05:33:23.443Z,85.55
2016-09-14T05:34:23.452Z,85.84
2016-09-14T05:35:23.423Z,85.46
2016-09-14T05:36:23.420Z,85.55
2016-09-14T05:37:23.424Z,85.27
2016-09-14T05:38:23.425Z,85.64
2016-09-14T05:39:23.402Z,85.08
2016-09-14T05:40:23.412Z,85.17
2016-09-14T05:41:23.405Z,85.36
2016-09-14T05:42:23.392Z,85.5
2016-09-14T05:43:23.383Z,85.02
2016-09-14T05:44:23.371Z,85.12
2016-09-14T05:45:23.370Z,85.12
2016-09-14T05:46:23.359Z,85.31
2016-09-14T05:47:23.366Z,84.83
2016-09-14T05:48:23.353Z,85.31
2016-09-14T05:49:23.346Z,85.12
2016-09-14T05:50:23.343Z,85.12
2016-09-14T05:51:23.339Z,84.59
2016-09-14T05:52:23.314Z,84.88
2016-09-14T05:53:23.307Z,85.06
2016-09-14T05:54:23.310Z,84.59
2016-09-14T05:55:23.314Z,84.63
2016-09-14T05:56:23.300Z,84.82
2016-09-14T05:57:23.304Z,85.01
2016-09-14T05:58:23.289Z,84.58
2016-09-14T05:59:23.283Z,84.48
2016-09-14T06:00:23.267Z,84.77
2016-09-14T06:01:23.285Z,84.43
2016-09-14T06:02:23.264Z,84.33
2016-09-14T06:03:23.267Z,84.23
2016-09-14T06:04:23.246Z,84.43
2016-09-14T06:05:23.235Z,83.81
2016-09-14T06:06:23.242Z,83.76
2016-09-14T06:07:23.229Z,83.91
2016-09-14T06:08:23.224Z,83.91
2016-09-14T06:09:23.224Z,83.91
2016-09-14T06:10:23.225Z,84.1
2016-09-14T06:11:23.211Z,84
2016-09-14T06:12:23.214Z,83.91
2016-09-14T06:13:23.207Z,83.81
2016-09-14T06:14:23.181Z,83.47
2016-09-14T06:15:23.184Z,83.7
2016-09-14T06:16:23.191Z,83.9
2016-09-14T06:17:23.172Z,83.37
2016-09-14T06:18:23.167Z,83.27
2016-09-14T06:19:23.168Z,83.46
2016-09-14T06:20:23.163Z,83.5
2016-09-14T06:21:23.141Z,82.74
2016-09-14T06:22:23.159Z,82.87
2016-09-14T06:23:23.153Z,83.16
2016-09-14T06:24:23.147Z,82.78
2016-09-14T06:25:23.120Z,83.01
2016-09-14T06:26:23.119Z,82.92
2016-09-14T06:27:23.123Z,82.57
2016-09-14T06:28:23.124Z,82.29
2016-09-14T06:29:23.120Z,82.48
2016-09-14T06:30:23.116Z,82.09
2016-09-14T06:31:23.102Z,82
2016-09-14T06:32:23.104Z,82.38
2016-09-14T06:33:23.098Z,82.04
2016-09-14T06:34:23.094Z,82.23
2016-09-14T06:35:23.066Z,82.04
2016-09-14T06:36:23.069Z,82.23
2016-09-14T06:37:23.073Z,81.79
2016-09-14T06:38:23.067Z,81.75
2016-09-14T06:39:23.363Z,81.37
2016-09-14T06:40:23.044Z,81.7
2016-09-14T06:41:23.038Z,81.51
2016-09-14T06:42:23.048Z,81.41
2016-09-14T06:43:23.052Z,81.6
2016-09-14T06:44:23.026Z,80.99
2016-09-14T06:45:23.043Z,80.89
2016-09-14T06:46:23.031Z,80.99
2016-09-14T06:47:23.029Z,81.18
2016-09-14T06:48:23.339Z,80.94
2016-09-14T06:49:23.012Z,80.76
2016-09-14T06:50:23.004Z,80.51
2016-09-14T06:51:22.997Z,80.64
2016-09-14T06:52:23.000Z,80.45
2016-09-14T06:53:23.005Z,80.2
2016-09-14T06:54:22.986Z,80.2
2016-09-14T06:55:23.004Z,80.24
2016-09-14T06:56:23.281Z,79.86
2016-09-14T06:57:22.988Z,79.96
2016-09-14T06:58:22.991Z,79.61
2016-09-14T06:59:22.980Z,79.67
2016-09-14T07:00:22.964Z,79.76
2016-09-14T07:01:22.973Z,79.42
2016-09-14T07:02:22.978Z,78.99
2016-09-14T07:03:22.952Z,79.22
2016-09-14T07:04:22.984Z,79.42
2016-09-14T07:05:22.951Z,79.42
2016-09-14T07:06:22.950Z,78.84
2016-09-14T07:07:22.941Z,78.88
2016-09-14T07:08:22.955Z,79.13
2016-09-14T07:09:22.949Z,78.84
2016-09-14T07:10:22.949Z,78.61
2016-09-14T07:11:22.926Z,78.8
2016-09-14T07:12:22.942Z,78.23
2016-09-14T07:13:22.924Z,78.8
2016-09-14T07:14:22.920Z,78.23
2016-09-14T07:15:22.919Z,78.23
2016-09-14T07:16:22.921Z,77.8
2016-09-14T07:17:22.923Z,77.8
2016-09-14T07:18:22.921Z,77.61
2016-09-14T07:19:22.901Z,77.76
2016-09-14T07:20:22.900Z,77.71
2016-09-14T07:21:22.910Z,77.67
2016-09-14T07:22:22.896Z,77.58
2016-09-14T07:23:22.901Z,77.86
2016-09-14T07:24:22.881Z,77.76
2016-09-14T07:25:22.887Z,78.09
2016-09-14T07:26:22.878Z,77.51
2016-09-14T07:27:22.876Z,77.46
2016-09-14T07:28:22.884Z,77.36
2016-09-14T07:29:22.875Z,77.46
2016-09-14T07:30:22.877Z,77.17
2016-09-14T07:31:22.876Z,77.08
2016-09-14T07:32:22.864Z,76.84
2016-09-14T07:33:22.857Z,77.26
2016-09-14T07:34:22.864Z,77.36
2016-09-14T07:35:22.863Z,77.08
2016-09-14T07:36:22.839Z,76.98
2016-09-14T07:37:22.836Z,76.98
2016-09-14T07:38:22.853Z,76.59
2016-09-14T07:39:24.689Z,76.79
2016-09-14T07:40:22.827Z,76.69
2016-09-14T07:41:22.844Z,76.69
2016-09-14T07:42:22.842Z,76.31
2016-09-14T07:43:22.818Z,76.31
2016-09-14T07:44:22.814Z,76.21
2016-09-14T07:45:22.831Z,76.4
2016-09-14T07:46:22.823Z,76.69
2016-09-14T07:47:22.825Z,76.21
2016-09-14T07:48:22.824Z,76.37
2016-09-14T07:49:22.798Z,76.27
2016-09-14T07:50:22.817Z,75.89
2016-09-14T07:51:22.798Z,75.89
2016-09-14T07:52:22.791Z,76.17
2016-09-14T07:53:22.807Z,76.02
2016-09-14T07:54:22.791Z,75.73
2016-09-14T07:55:22.781Z,75.57
2016-09-14T07:56:22.789Z,75.67
2016-09-14T07:57:22.804Z,75.48
2016-09-14T07:58:22.788Z,75.25
2016-09-14T07:59:22.784Z,75.29
2016-09-14T08:00:22.778Z,75.1
2016-09-14T08:01:22.778Z,75.25
2016-09-14T08:02:22.765Z,75.25
2016-09-14T08:03:22.771Z,75.15
2016-09-14T08:04:22.775Z,75.06
2016-09-14T08:05:22.771Z,74.96
2016-09-14T08:06:23.061Z,75.06
2016-09-14T08:07:22.751Z,74.83
2016-09-14T08:08:22.763Z,74.98
2016-09-14T08:09:22.755Z,74.98
2016-09-14T08:10:22.737Z,74.54
2016-09-14T08:11:22.747Z,74.73
2016-09-14T08:12:22.752Z,74.64
2016-09-14T08:13:22.749Z,74.93
2016-09-14T08:14:22.730Z,74.96
2016-09-14T08:15:22.719Z,74.23
2016-09-14T08:16:22.747Z,74.19
2016-09-14T08:17:22.731Z,74.48
2016-09-14T08:18:22.726Z,74.29
2016-09-14T08:19:22.730Z,74.58
2016-09-14T08:20:22.727Z,74.58
2016-09-14T08:21:22.724Z,74.54
2016-09-14T08:22:22.711Z,74.54
2016-09-14T08:23:22.717Z,74.44
2016-09-14T08:24:22.706Z,74.06
2016-09-14T08:25:22.697Z,73.87
2016-09-14T08:26:22.687Z,73.74
2016-09-14T08:27:22.685Z,73.83
2016-09-14T08:28:22.694Z,74.18
2016-09-14T08:29:22.676Z,74.18
2016-09-14T08:30:22.692Z,73.99
2016-09-14T08:31:22.666Z,73.99
2016-09-14T08:32:22.663Z,73.65
2016-09-14T08:33:22.657Z,73.83
2016-09-14T08:34:22.655Z,74.02
2016-09-14T08:35:22.651Z,74.02
2016-09-14T08:36:22.655Z,73.74
2016-09-14T08:37:22.654Z,73.65
2016-09-14T08:38:22.644Z,73.8
2016-09-14T08:39:22.637Z,73.8
2016-09-14T08:40:22.637Z,73.76
2016-09-14T08:41:22.638Z,74.01
2016-09-14T08:42:22.636Z,73.72
2016-09-14T08:43:22.618Z,73.72
2016-09-14T08:44:22.613Z,73.86
2016-09-14T08:45:22.626Z,73.86
2016-09-14T08:46:22.618Z,73.86
2016-09-14T08:47:22.609Z,73.86
2016-09-14T08:48:22.611Z,73.76
2016-09-14T08:49:22.608Z,74.05
2016-09-14T08:50:22.591Z,73.86
2016-09-14T08:51:22.594Z,73.9
2016-09-14T08:52:22.576Z,74.02
2016-09-14T08:53:22.577Z,73.9
2016-09-14T08:54:22.591Z,73.8
2016-09-14T08:55:22.561Z,73.54
2016-09-14T08:56:22.576Z,73.76
2016-09-14T08:57:22.559Z,73.57
2016-09-14T08:58:22.565Z,73.76
2016-09-14T08:59:22.843Z,73.86
2016-09-14T09:00:22.541Z,73.57
2016-09-14T09:01:22.553Z,73.66
2016-09-14T09:02:22.545Z,73.57
2016-09-14T09:03:22.537Z,73.7
2016-09-14T09:04:22.524Z,73.7
2016-09-14T09:05:22.510Z,73.83
2016-09-14T09:06:22.515Z,74.12
2016-09-14T09:07:22.503Z,74.02
2016-09-14T09:08:22.508Z,74.02
2016-09-14T09:09:22.513Z,73.99
2016-09-14T09:10:22.489Z,73.8
2016-09-14T09:11:22.492Z,73.99
2016-09-14T09:12:22.494Z,73.65
2016-09-14T09:13:22.481Z,73.51
2016-09-14T09:14:22.485Z,73.41
2016-09-14T09:15:22.473Z,73.8
2016-09-14T09:16:22.487Z,73.41
2016-09-14T09:17:22.457Z,73.61
2016-09-14T09:18:22.474Z,73.57
2016-09-14T09:19:22.470Z,73.57
2016-09-14T09:20:22.457Z,73.95
2016-09-14T09:21:22.451Z,73.47
2016-09-14T09:22:22.448Z,73.51
2016-09-14T09:23:22.458Z,73.65
2016-09-14T09:24:22.424Z,73.1
2016-09-14T09:25:22.433Z,73.39
2016-09-14T09:26:22.416Z,73.58
2016-09-14T09:27:22.412Z,73.49
2016-09-14T09:28:22.418Z,73.2
2016-09-14T09:29:22.408Z,73.68
2016-09-14T09:30:22.418Z,73.77
2016-09-14T09:31:22.408Z,73.68
2016-09-14T09:32:22.403Z,73.68
2016-09-14T09:33:22.400Z,73.3
2016-09-14T09:34:22.388Z,73.13
2016-09-14T09:35:22.376Z,73.51
2016-09-14T09:36:22.393Z,73.47
2016-09-14T09:37:22.382Z,73.34
2016-09-14T09:38:22.384Z,73.24
2016-09-14T09:39:22.364Z,73.19
2016-09-14T09:40:22.358Z,73.28
2016-09-14T09:41:22.364Z,73.19
2016-09-14T09:42:22.345Z,73.28
2016-09-14T09:43:22.353Z,73.47
2016-09-14T09:44:22.335Z,73.22
2016-09-14T09:45:22.349Z,73.22
2016-09-14T09:46:22.324Z,73.51
2016-09-14T09:47:22.335Z,73.22
2016-09-14T09:48:22.314Z,73.86
2016-09-14T09:49:22.314Z,73.38
2016-09-14T09:50:22.311Z,73.7
2016-09-14T09:51:22.321Z,73.38
2016-09-14T09:52:22.308Z,73.57
2016-09-14T09:53:22.310Z,73.57
2016-09-14T09:54:22.287Z,73.95
2016-09-14T09:55:22.295Z,73.76
2016-09-14T09:56:22.275Z,73.57
2016-09-14T09:57:22.276Z,73.8
2016-09-14T09:58:22.287Z,73.8
2016-09-14T09:59:22.281Z,73.57
2016-09-14T10:00:22.263Z,73.63
2016-09-14T10:01:22.262Z,73.72
2016-09-14T10:02:22.267Z,73.95
2016-09-14T10:03:22.253Z,73.95
2016-09-14T10:04:22.241Z,74.08
2016-09-14T10:05:22.229Z,73.99
2016-09-14T10:06:22.246Z,74.08
2016-09-14T10:07:22.217Z,74.37
2016-09-14T10:08:22.242Z,74.43
2016-09-14T10:09:22.217Z,74.27
2016-09-14T10:10:22.208Z,74.51
2016-09-14T10:11:22.235Z,74.37
2016-09-14T10:12:22.209Z,74.31
2016-09-14T10:13:22.216Z,74.31
2016-09-14T10:14:22.207Z,74.41
2016-09-14T10:15:22.195Z,74.41
2016-09-14T10:16:22.182Z,74.41
2016-09-14T10:17:22.174Z,74.51
2016-09-14T10:18:22.175Z,74.51
2016-09-14T10:19:22.185Z,74.27
2016-09-14T10:20:22.168Z,74.15
2016-09-14T10:21:22.153Z,74.43
2016-09-14T10:22:22.150Z,74.15
2016-09-14T10:23:22.164Z,74.62
2016-09-14T10:24:22.147Z,74.52
2016-09-14T10:25:22.142Z,74.49
2016-09-14T10:26:22.130Z,74.91
2016-09-14T10:27:22.150Z,74.72
2016-09-14T10:28:22.141Z,75.2
2016-09-14T10:29:22.121Z,74.91
2016-09-14T10:30:22.135Z,75.01
2016-09-14T10:31:22.125Z,74.95
2016-09-14T10:32:22.101Z,74.95
2016-09-14T10:33:22.102Z,74.95
2016-09-14T10:34:22.097Z,75.14
2016-09-14T10:35:22.091Z,75.18
2016-09-14T10:36:22.094Z,75.04
2016-09-14T10:37:22.089Z,75.14
2016-09-14T10:38:22.084Z,74.91
2016-09-14T10:39:22.074Z,74.85
2016-09-14T10:40:22.066Z,75.04
2016-09-14T10:41:22.082Z,74.91
2016-09-14T10:42:22.059Z,74.93
2016-09-14T10:43:22.060Z,75.47
2016-09-14T10:44:22.055Z,75.24
2016-09-14T10:45:22.042Z,75.43
2016-09-14T10:46:22.050Z,75.39
2016-09-14T10:47:22.044Z,75.93
2016-09-14T10:48:22.041Z,75.96
2016-09-14T10:49:22.033Z,76.25
2016-09-14T10:50:22.017Z,76.03
2016-09-14T10:51:22.000Z,76.21
2016-09-14T10:52:22.005Z,76.08
2016-09-14T10:53:21.999Z,76.18
2016-09-14T10:54:21.993Z,76.65
2016-09-14T10:55:21.985Z,76.73
2016-09-14T10:56:21.995Z,76.45
2016-09-14T10:57:21.989Z,76.73
2016-09-14T10:58:21.964Z,77.01
2016-09-14T10:59:21.956Z,77.01
2016-09-14T11:00:21.971Z,76.64
2016-09-14T11:01:21.950Z,77.01
2016-09-14T11:02:21.938Z,77.3
2016-09-14T11:03:21.940Z,77.01
2016-09-14T11:04:21.939Z,76.79
2016-09-14T11:05:21.922Z,77.3
2016-09-14T11:06:21.916Z,77.59
2016-09-14T11:07:21.932Z,77.82
2016-09-14T11:08:21.907Z,77.63
2016-09-14T11:09:21.911Z,77.57
2016-09-14T11:10:21.903Z,77.55
2016-09-14T11:11:21.904Z,77.55
2016-09-14T11:12:21.893Z,77.46
2016-09-14T11:13:21.893Z,77.65
2016-09-14T11:14:21.873Z,77.53
2016-09-14T11:15:21.869Z,77.69
2016-09-14T11:16:21.868Z,77.69
2016-09-14T11:17:21.873Z,77.59
2016-09-14T11:18:21.875Z,77.5
2016-09-14T11:19:21.851Z,77.73
2016-09-14T11:20:21.859Z,77.76
2016-09-14T11:21:21.863Z,77.51
2016-09-14T11:22:21.851Z,77.51
2016-09-14T11:23:21.861Z,77.31
2016-09-14T11:24:21.842Z,77.51
2016-09-14T11:25:21.824Z,77.25
2016-09-14T11:26:21.832Z,77.53
2016-09-14T11:27:21.832Z,77.78
2016-09-14T11:28:21.819Z,77.69
2016-09-14T11:29:21.817Z,78.26
2016-09-14T11:30:21.818Z,78.07
2016-09-14T11:31:21.789Z,78.58
2016-09-14T11:32:21.792Z,78.47
2016-09-14T11:33:21.801Z,78.32
2016-09-14T11:34:21.794Z,78.07
2016-09-14T11:35:21.791Z,78.32
2016-09-14T11:36:21.778Z,78.22
2016-09-14T11:37:21.781Z,78.47
2016-09-14T11:38:21.767Z,78.57
2016-09-14T11:39:21.771Z,78.47
2016-09-14T11:40:21.759Z,78.43
2016-09-14T11:41:21.742Z,78.66
2016-09-14T11:42:21.756Z,78.86
2016-09-14T11:43:21.739Z,78.72
2016-09-14T11:44:21.732Z,78.34
2016-09-14T11:45:21.723Z,78.34
2016-09-14T11:46:21.742Z,78.53
2016-09-14T11:47:21.726Z,78.81
2016-09-14T11:48:21.713Z,78.3
2016-09-14T11:49:21.703Z,78.87
2016-09-14T11:50:21.696Z,79.2
2016-09-14T11:51:21.701Z,79.05
2016-09-14T11:52:21.688Z,78.74
2016-09-14T11:53:21.689Z,78.74
2016-09-14T11:54:21.698Z,78.59
2016-09-14T11:55:21.693Z,78.69
2016-09-14T11:56:21.667Z,78.78
2016-09-14T11:57:21.683Z,78.7
2016-09-14T11:58:21.683Z,78.57
2016-09-14T11:59:21.652Z,79.1
2016-09-14T12:00:21.667Z,79.24
2016-09-14T12:01:21.649Z,78.99
2016-09-14T12:02:21.659Z,79.37
2016-09-14T12:03:21.646Z,79.22
2016-09-14T12:04:21.642Z,78.7
2016-09-14T12:05:21.635Z,79.29
2016-09-14T12:06:21.631Z,78.78
2016-09-14T12:07:21.622Z,78.81
2016-09-14T12:08:21.622Z,78.95
2016-09-14T12:09:21.616Z,78.72
2016-09-14T12:10:21.611Z,78.86
2016-09-14T12:11:21.613Z,79.05
2016-09-14T12:12:21.609Z,79.14
2016-09-14T12:13:21.584Z,78.89
2016-09-14T12:14:21.589Z,79.28
2016-09-14T12:15:21.593Z,79.14
2016-09-14T12:16:21.579Z,78.91
2016-09-14T12:17:21.561Z,78.64
2016-09-14T12:18:21.555Z,78.93
2016-09-14T12:19:21.557Z,79.02
2016-09-14T12:20:21.565Z,79.36
2016-09-14T12:21:21.541Z,79.35
2016-09-14T12:22:21.533Z,79.2
2016-09-14T12:23:21.543Z,79.52
2016-09-14T12:24:21.538Z,79.08
2016-09-14T12:25:21.528Z,78.93
2016-09-14T12:26:21.515Z,78.99
2016-09-14T12:27:21.514Z,78.76
2016-09-14T12:28:21.517Z,78.91
2016-09-14T12:29:21.512Z,78.78
2016-09-14T12:30:21.514Z,79.12
2016-09-14T12:31:21.508Z,79.31
2016-09-14T12:32:21.503Z,79.41
2016-09-14T12:33:21.483Z,79.41
2016-09-14T12:34:21.493Z,79.25
2016-09-14T12:35:21.466Z,79.2
2016-09-14T12:36:21.461Z,79.44
2016-09-14T12:37:21.476Z,79.31
2016-09-14T12:38:21.452Z,79.39
2016-09-14T12:39:21.451Z,79.49
2016-09-14T12:40:21.449Z,79.68
2016-09-14T12:41:21.434Z,79.77
2016-09-14T12:42:21.433Z,79.58
2016-09-14T12:43:21.423Z,79.73
2016-09-14T12:44:21.431Z,79.79
2016-09-14T12:45:21.417Z,79.6
2016-09-14T12:46:21.422Z,79.6
2016-09-14T12:47:21.423Z,79.46
2016-09-14T12:48:21.402Z,79.69
2016-09-14T12:49:21.394Z,79.36
2016-09-14T12:50:21.407Z,79.94
2016-09-14T12:51:21.380Z,80.13
2016-09-14T12:52:21.375Z,80.13
2016-09-14T12:53:21.375Z,80.28
2016-09-14T12:54:21.376Z,80.19
2016-09-14T12:55:21.371Z,80.09